Flight Track Log - Related Links

Times and Time Zones

All times are in EDT time to prevent confusion due to time zone crossing. See the UAL4236 flight status page for this flight to view local times or setup timezone preferences in your user account.

Time Position Orientation Groundspeed Altitude Reporting Facility
EDT Latitude Longitude Course Direction KTS MPH feet Rate Location/Type
Wed 08:23:15 AM 33.5531 -86.7758 239° Southwest 165 190 1,300  Level Atlanta Center
Wed 08:24:22 AM 33.5267 -86.8347 242° Southwest 200 230 3,700 2,000 Climbing Atlanta Center
Wed 08:26:00 AM 33.3138 -87.0974 230° Southwest  Level FlightAware Approximate
Wed 08:26:03 AM 33.4639 -86.9272 231° Southwest 240 276 6,900  Level Atlanta Center
Wed 08:27:00 AM 33.2548 -87.1845 231° Southwest  Level FlightAware Approximate
Wed 08:27:03 AM 33.4167 -86.9928 229° Southwest 251 289 9,100  Level Atlanta Center
Wed 08:28:00 AM 33.1970 -87.2726 239° Southwest  Level FlightAware Approximate
Wed 08:28:03 AM 33.3669 -87.0633 230° Southwest 267 307 10,300  Level Atlanta Center
Wed 08:29:03 AM 33.3083 -87.1483 230° Southwest 298 343 10,800 950 Climbing Atlanta Center
Wed 08:30:03 AM 33.2433 -87.2428 231° Southwest 341 392 12,200 1,450 Climbing Atlanta Center
Wed 08:31:03 AM 33.1783 -87.3322 229° Southwest 358 412 13,700 1,450 Climbing Atlanta Center
Wed 08:32:03 AM 33.1133 -87.4242 230° Southwest 364 419 15,100 1,350 Climbing Atlanta Center
Wed 08:33:03 AM 33.0481 -87.5158 230° Southwest 369 425 16,400 1,250 Climbing Atlanta Center
Wed 08:34:03 AM 32.9742 -87.6217 230° Southwest 369 425 17,600 1,169 Climbing Atlanta Center
Wed 08:34:20 AM 32.9533 -87.6464 225° Southwest 372 428 17,900 1,169 Climbing Memphis Center
Wed 08:35:20 AM 32.8844 -87.7425 230° Southwest 367 422 19,100 1,150 Climbing Memphis Center
Wed 08:36:20 AM 32.8156 -87.8408 230° Southwest 377 434 20,200 1,050 Climbing Memphis Center
Wed 08:37:20 AM 32.7567 -87.9289 232° Southwest 383 441 21,200 1,150 Climbing Memphis Center
Wed 08:38:20 AM 32.7089 -88.0414 243° Southwest 383 441 22,500 1,300 Climbing Memphis Center
Wed 08:39:20 AM 32.6733 -88.1633 251° West 381 438 23,800 1,300 Climbing Memphis Center
Wed 08:40:20 AM 32.6378 -88.2800 250° West 381 438 25,100 1,350 Climbing Memphis Center
Wed 08:41:20 AM 32.6000 -88.3944 249° West 381 438 26,500 1,300 Climbing Memphis Center
Wed 08:42:20 AM 32.5683 -88.5086 252° West 376 433 27,700 1,200 Climbing Memphis Center
Wed 08:43:20 AM 32.5325 -88.6200 249° West 371 427 28,900 1,100 Climbing Memphis Center
Wed 08:44:20 AM 32.4964 -88.7342 249° West 371 427 29,900 550 Climbing Memphis Center
Wed 08:45:20 AM 32.4603 -88.8531 250° West 376 433 30,000 50 Climbing Memphis Center
Wed 08:46:20 AM 32.4219 -88.9742 249° West 388 447 30,000  Level Memphis Center
Wed 08:47:20 AM 32.3836 -89.1028 251° West 402 463 30,000 300 Level Memphis Center
Wed 08:48:20 AM 32.3411 -89.2311 249° West 415 478 30,600 800 Climbing Memphis Center
Wed 08:49:20 AM 32.3025 -89.3544 250° West 415 478 31,600 1,050 Climbing Memphis Center
Wed 08:50:20 AM 32.2639 -89.4753 249° West 409 471 32,700 1,100 Climbing Memphis Center
Wed 08:51:20 AM 32.2250 -89.5961 249° West 409 471 33,800 650 Climbing Memphis Center
Wed 08:52:20 AM 32.1881 -89.7167 250° West 398 458 34,000 100 Climbing Memphis Center
Wed 08:53:20 AM 32.1469 -89.8419 249° West 403 464 34,000  Level Memphis Center
Wed 08:54:20 AM 32.1056 -89.9697 249° West 409 471 34,000  Level Memphis Center
Wed 08:55:20 AM 32.0642 -90.0950 249° West 409 471 34,000  Level Memphis Center
Wed 08:56:20 AM 32.0247 -90.2178 249° West 409 471 34,000  Level Memphis Center
Wed 08:57:51 AM 31.9658 -90.4019 249° West 399 459 34,000  Level Houston Center
Wed 08:58:53 AM 31.9258 -90.5233 249° West 399 459 34,000  Level Houston Center
Wed 08:59:54 AM 31.8858 -90.6442 249° West 398 458 34,000  Level Houston Center
Wed 09:00:56 AM 31.8461 -90.7647 249° West 396 456 34,000  Level Houston Center
Wed 09:01:58 AM 31.7989 -90.9094 249° West 394 453 34,000  Level Houston Center
Wed 09:03:00 AM 31.7594 -91.0306 249° West 396 456 34,000  Level Houston Center
Wed 09:04:01 AM 31.7203 -91.1442 248° West 398 458 34,000  Level Houston Center
Wed 09:05:03 AM 31.6786 -91.2644 248° West 398 458 34,000  Level Houston Center
Wed 09:06:05 AM 31.6308 -91.4083 249° West 395 455 34,000  Level Houston Center
Wed 09:07:07 AM 31.5911 -91.5294 249° West 396 456 34,000  Level Houston Center
Wed 09:08:09 AM 31.5497 -91.6503 248° West 398 458 34,000  Level Houston Center
Wed 09:09:10 AM 31.5094 -91.7700 248° West 397 457 34,000  Level Houston Center
Wed 09:10:12 AM 31.4678 -91.8908 248° West 397 457 34,000  Level Houston Center
Wed 09:11:14 AM 31.4267 -92.0097 248° West 394 453 34,000 -532 Level Houston Center
Wed 09:12:16 AM 31.3828 -92.1342 248° West 399 459 32,900 -976 Descending Houston Center
Wed 09:13:17 AM 31.3403 -92.2564 248° West 404 465 32,000 -439 Descending Houston Center
Wed 09:14:19 AM 31.2894 -92.4047 248° West 410 472 32,000  Level Houston Center
Wed 09:15:21 AM 31.2431 -92.5256 246° West 410 472 32,000  Level Houston Center
Wed 09:16:23 AM 31.1811 -92.6364 237° Southwest 408 470 32,000  Level Houston Center
Wed 09:17:25 AM 31.1189 -92.7464 237° Southwest 408 470 32,000  Level Houston Center
Wed 09:18:27 AM 31.0567 -92.8567 237° Southwest 408 470 32,000  Level Houston Center
Wed 09:19:28 AM 30.9939 -92.9683 237° Southwest 412 474 32,000  Level Houston Center
Wed 09:20:30 AM 30.9328 -93.0797 237° Southwest 411 473 32,000  Level Houston Center
Wed 09:21:32 AM 30.8564 -93.2133 236° Southwest 413 475 32,000  Level Houston Center
Wed 09:22:34 AM 30.7942 -93.3244 237° Southwest 414 476 32,000 -484 Level Houston Center
Wed 09:23:36 AM 30.7317 -93.4356 237° Southwest 414 476 31,000 -1,902 Descending Houston Center
Wed 09:24:37 AM 30.6669 -93.5478 236° Southwest 420 483 28,100 -2,585 Descending Houston Center
Wed 09:25:39 AM 30.6028 -93.6614 237° Southwest 427 491 25,700 -2,516 Descending Houston Center
Wed 09:26:41 AM 30.5236 -93.7989 236° Southwest 431 496 22,900 -2,537 Descending Houston Center
Wed 09:27:42 AM 30.4606 -93.9078 236° Southwest 414 476 20,500 -2,308 Descending Houston Center
Wed 09:27:59 AM 30.4417 -93.9419 237° Southwest 408 470 19,900 -2,129 Descending Houston Center
Wed 09:28:44 AM 30.3981 -94.0167 236° Southwest 410 472 18,300 -2,440 Descending Houston Center
Wed 09:29:30 AM 30.3483 -94.1000 235° Southwest 383 441 16,200 -2,323 Descending Houston Center
Wed 09:29:46 AM 30.3403 -94.1183 243° Southwest 388 447 15,900 -2,164 Descending Houston Center
Wed 09:30:31 AM 30.3008 -94.2106 244° Southwest 366 421 14,000 -2,129 Descending Houston Center
Wed 09:30:48 AM 30.2961 -94.2231 246° West 368 423 13,700 -1,397 Descending Houston Center
Wed 09:31:44 AM 30.2633 -94.3414 252° West 359 413 12,300 -872 Descending Houston Center
Wed 09:32:45 AM 30.2303 -94.4547 251° West 355 409 12,000 -165 Descending Houston Center
Wed 09:33:33 AM 30.2056 -94.5450 252° West 359 413 12,000 88 Level Houston Center
Wed 09:33:53 AM 30.1978 -94.5739 253° West 356 410 12,100  Climbing Houston Center
Wed 09:34:34 AM 30.1742 -94.6556 252° West 362 417 12,000  Descending Houston Center
Wed 09:34:54 AM 30.1669 -94.6842 254° West 359 413 12,100 -492 Climbing Houston Center
Wed 09:35:35 AM 30.1425 -94.7633 250° West 344 396 11,500 -677 Descending Houston Center
Wed 09:35:56 AM 30.1378 -94.7889 258° West 351 404 11,400 -984 Descending Houston Center
Wed 09:36:36 AM 30.1175 -94.8536 250° West 273 314 10,500 -1,161 Descending Houston Center
Wed 09:36:58 AM 30.1142 -94.8731 259° West 292 336 10,200 -1,700 Descending Houston Center
Wed 09:37:36 AM 30.1042 -94.9350 259° West 269 310 8,800 -1,742 Descending Houston Center
Wed 09:38:00 AM 30.1006 -94.9550 258° West 270 311 8,400 -1,672 Descending Houston Center
Wed 09:38:37 AM 30.1039 -95.0197 273° West 265 305 7,100 -1,475 Descending Houston Center
Wed 09:39:01 AM 30.1069 -95.0406 280° West 267 307 6,900 -1,082 Descending Houston Center
Wed 09:39:38 AM 30.1058 -95.1086 269° West 261 300 6,000 -774 Descending Houston Center
Wed 09:40:03 AM 30.1075 -95.1406 273° West 264 304 6,100  Climbing Houston Center
Wed 09:40:39 AM 30.1053 -95.1933 267° West 261 300 6,000  Descending Houston Center
Wed 09:41:05 AM 30.1064 -95.2239 272° West 262 302 6,100  Climbing Houston Center
Wed 09:41:40 AM 30.1069 -95.2778 271° West 258 297 6,000  Descending Houston Center
Wed 09:42:07 AM 30.1072 -95.3061 271° West 260 299 6,100  Climbing Houston Center
Wed 09:42:41 AM 30.1061 -95.3622 269° West 266 306 6,000  Descending Houston Center
Wed 09:43:08 AM 30.1067 -95.3914 271° West 266 306 6,100 -300 Climbing Houston Center
Wed 09:43:41 AM 30.1056 -95.4469 269° West 265 305 5,700 -677 Descending Houston Center
Wed 09:44:10 AM 30.1075 -95.4750 275° West 262 302 5,400 -982 Descending Houston Center
Wed 09:44:36 AM 30.1061 -95.5242 268° West 261 300 4,800 -968 Descending Houston Center
Wed 09:45:12 AM 30.0978 -95.5525 251° West 246 283 4,400 -885 Descending Houston Center
Wed 09:45:37 AM 30.0847 -95.5894 248° West 207 238 3,900 -968 Descending Houston Center
Wed 09:46:14 AM 30.0558 -95.5967 192° South 192 221 3,400 -885 Descending Houston Center
Wed 09:46:38 AM 30.0333 -95.6003 188° South 183 211 3,000 -387 Descending Houston Center
Wed 09:47:16 AM 30.0097 -95.5806 144° Southeast 190 219 3,000  Level Houston Center
Wed 09:47:39 AM 29.9978 -95.5564 120° Southeast 202 232 3,000 -197 Level Houston Center
Wed 09:48:17 AM 29.9914 -95.5219 102° East 191 220 2,800 -689 Descending Houston Center
Wed 09:48:40 AM 29.9919 -95.4919 89° East 213 245 2,300 -968 Descending Houston Center
Wed 09:49:19 AM 29.9928 -95.4569 88° East 198 228 1,800 -769 Descending Houston Center

Login

Don't have an account? Register now (free) for customized features, flight alerts, and more!